Latest Weather Observations for Cape Nelson

IDV60801

Issued at 12:02 pm EST Wednesday 8 July 2015 (issued every 30 minutes, with the page automatically refreshed every 10 minutes)

About weather observations | Map of weather stations | Latest weather observations for VIC | Other Formats
Station Details ID: 090184 Name: CAPE NELSON LIGHTHOUSE Lat: -38.43 Lon: 141.54 Height: 45.4 m
Data from the previous 72 hours. | See also: Recent months at Cape Nelson
Date/Time
EST
Temp
°C
App
Temp
°C
Dew
Point
Rel
Hum
%
Delta-T
°C
Wind Press
QNH
hPa
Press
MSL
hPa
Rain
since 9 am
mm
Dir
 
Spd
km/h
Gust
km/h
Spd
kts
Gust
kts
08/12:00pm 14.3 11.1 10.1 76 2.2 NNW 17 26 9 14 1024.5 1024.6 0.0
08/11:30am 13.2 10.4 10.0 81 1.6 N 15 20 8 11 1024.9 1025.0 0.0
08/11:00am 12.5 9.1 9.3 81 1.6 N 17 24 9 13 1025.2 1025.3 0.0
08/10:30am 11.8 8.1 9.4 85 1.2 N 19 24 10 13 1025.2 1025.3 0.0
08/10:00am 10.6 6.7 8.7 88 0.9 N 19 28 10 15 1024.9 1025.0 0.0
08/09:30am 9.4 5.7 7.8 90 0.8 N 17 24 9 13 1024.9 1025.0 0.0
08/09:00am 9.0 5.2 7.5 90 0.7 N 17 24 9 13 1024.9 1025.0 0.0
08/08:30am 8.6 4.7 7.2 91 0.7 N 17 24 9 13 1024.9 1025.0 0.0
08/08:00am 8.5 4.6 7.1 91 0.7 N 17 22 9 12 1024.7 1024.8 0.0
08/07:30am 8.4 4.9 7.2 92 0.6 N 15 20 8 11 1024.5 1024.6 0.0
08/07:00am 8.1 4.5 6.9 92 0.6 N 15 19 8 10 1024.2 1024.3 0.0
08/06:30am 7.7 4.0 6.5 92 0.6 N 15 19 8 10 1024.0 1024.1 0.0
08/06:00am 7.7 4.4 6.5 92 0.5 NNE 13 15 7 8 1023.8 1023.9 0.0
08/05:30am 7.9 5.5 6.8 93 0.5 NNE 9 13 5 7 1023.7 1023.8 0.0
08/05:00am 7.6 4.3 6.5 93 0.5 N 13 17 7 9 1023.7 1023.8 0.0
08/04:30am 7.4 4.1 6.3 93 0.5 N 13 17 7 9 1023.8 1023.9 0.0
08/04:00am 6.5 3.0 5.3 92 0.5 N 13 17 7 9 1023.9 1024.0 0.0
08/03:30am 5.5 1.8 4.2 91 0.6 NNE 13 15 7 8 1024.1 1024.2 0.0
08/03:00am 6.1 2.4 4.7 91 0.6 N 13 13 7 7 1024.1 1024.2 0.0
08/02:30am 6.6 3.0 5.2 91 0.6 N 13 15 7 8 1024.0 1024.1 0.0
08/02:00am 7.0 3.5 5.6 91 0.6 N 13 15 7 8 1023.9 1024.0 0.0
08/01:30am 6.6 2.7 5.2 91 0.6 N 15 17 8 9 1023.9 1024.0 0.0
08/01:00am 6.6 3.0 5.2 91 0.6 N 13 15 7 8 1023.9 1024.0 0.0
08/12:30am 6.9 3.4 5.4 90 0.7 N 13 15 7 8 1024.1 1024.2 0.0
08/12:00am 6.9 3.4 5.4 90 0.7 N 13 17 7 9 1024.1 1024.2 0.0
 
Date/Time
EST
Temp
°C
App
Temp
°C
Dew
Point
Rel
Hum
%
Delta-T
°C
Wind Press
QNH
hPa
Press
MSL
hPa
Rain
since 9 am
mm
Dir
 
Spd
km/h
Gust
km/h
Spd
kts
Gust
kts
07/11:30pm 7.3 3.5 5.8 90 0.7 N 15 17 8 9 1024.0 1024.1 0.0
07/11:00pm 7.2 3.8 5.8 91 0.6 N 13 17 7 9 1024.1 1024.2 0.0
07/10:30pm 7.4 4.0 6.0 91 0.6 N 13 17 7 9 1024.2 1024.3 0.0
07/10:00pm 7.9 4.7 6.7 92 0.6 NNW 13 15 7 8 1024.3 1024.4 0.0
07/09:30pm 7.9 4.7 6.7 92 0.6 NNW 13 19 7 10 1024.2 1024.3 0.0
07/09:00pm 7.5 4.2 6.3 92 0.5 NNW 13 17 7 9 1024.1 1024.2 0.0
07/08:30pm 7.7 4.0 6.5 92 0.6 NNW 15 20 8 11 1024.0 1024.1 0.0
07/08:00pm 7.7 4.0 6.3 91 0.6 NNW 15 20 8 11 1023.8 1023.9 0.0
07/07:30pm 7.2 4.1 5.7 90 0.7 NNW 11 13 6 7 1023.5 1023.6 0.0
07/07:00pm 7.7 4.7 6.0 89 0.8 N 11 13 6 7 1023.3 1023.4 0.0
07/06:30pm 8.1 5.5 6.2 88 0.9 NNW 9 11 5 6 1023.3 1023.4 0.0
07/06:00pm 8.8 5.9 6.6 86 1.0 NNW 11 13 6 7 1023.0 1023.1 0.0
07/05:30pm 10.1 7.4 7.5 84 1.2 N 11 13 6 7 1022.8 1022.9 0.0
07/05:00pm 11.6 9.6 8.6 82 1.5 N 9 13 5 7 1022.4 1022.5 0.0
07/04:30pm 12.0 10.0 8.8 81 1.6 N 9 13 5 7 1022.3 1022.4 0.0
07/04:00pm 12.3 10.4 9.1 81 1.6 NNE 9 13 5 7 1022.2 1022.3 0.0
07/03:30pm 12.7 10.8 9.0 78 1.9 NNE 9 11 5 6 1022.0 1022.1 0.0
07/03:00pm 14.2 12.4 9.4 73 2.5 NNE 9 15 5 8 1021.7 1021.8 0.0
07/02:30pm 14.0 11.8 9.2 73 2.4 NE 11 17 6 9 1021.5 1021.6 0.0
07/02:00pm 14.4 12.6 9.6 73 2.5 NE 9 15 5 8 1021.5 1021.6 0.0
07/01:30pm 14.3 12.5 9.5 73 2.5 NE 9 15 5 8 1021.7 1021.8 0.0
07/01:00pm 14.6 12.8 10.8 78 2.0 NNE 11 17 6 9 1021.9 1022.0 0.0
07/12:30pm 14.0 12.1 10.6 80 1.8 N 11 17 6 9 1022.0 1022.1 0.0
07/12:00pm 13.0 10.6 10.0 82 1.5 N 13 20 7 11 1022.1 1022.2 0.0
07/11:30am 12.7 10.1 10.6 87 1.1 N 15 22 8 12 1022.3 1022.4 0.0
07/11:00am 11.8 9.0 10.0 89 0.9 N 15 20 8 11 1022.4 1022.5 0.0
07/10:30am 11.4 9.1 10.3 93 0.6 N 13 19 7 10 1022.2 1022.3 0.0
07/10:00am 10.6 7.7 9.8 95 0.4 N 15 19 8 10 1022.0 1022.1 0.0
07/09:30am 9.3 6.1 8.5 95 0.4 N 15 20 8 11 1021.7 1021.8 0.0
07/09:00am 8.6 5.6 7.8 95 0.4 N 13 19 7 10 1021.5 1021.6 4.2
07/08:30am 8.9 6.0 8.1 95 0.4 N 13 17 7 9 1021.1 1021.2 4.2
07/08:00am 8.9 6.0 8.1 95 0.4 N 13 15 7 8 1020.7 1020.8 4.2
07/07:30am 8.5 5.9 7.7 95 0.4 N 11 13 6 7 1020.4 1020.5 4.0
07/07:00am 7.7 4.9 7.0 95 0.3 NNW 11 11 6 6 1020.1 1020.2 4.0
07/06:30am 7.8 5.0 7.1 95 0.3 NNW 11 13 6 7 1019.6 1019.7 4.0
07/06:00am 8.1 5.0 7.3 95 0.4 NNW 13 13 7 7 1019.2 1019.3 4.0
07/05:30am 8.5 5.5 7.7 95 0.4 NNW 13 15 7 8 1018.8 1018.9 4.0
07/05:00am 8.4 5.4 7.6 95 0.4 NNW 13 13 7 7 1018.6 1018.7 4.0
07/04:30am 8.2 5.5 7.3 94 0.4 NNW 11 13 6 7 1018.3 1018.4 4.0
07/04:00am 8.6 6.0 7.7 94 0.4 NW 11 15 6 8 1018.3 1018.4 4.0
07/03:30am 9.3 6.5 8.5 95 0.4 NW 13 15 7 8 1018.4 1018.5 4.0
07/03:00am 9.4 7.0 8.6 95 0.4 NW 11 15 6 8 1018.3 1018.4 4.0
07/02:30am 8.9 6.4 8.1 95 0.4 NW 11 15 6 8 1018.1 1018.2 4.0
07/02:00am 8.7 6.1 7.8 94 0.4 NNW 11 13 6 7 1017.9 1018.0 4.0
07/01:30am 8.8 5.8 7.9 94 0.4 NNW 13 15 7 8 1017.6 1017.7 3.8
07/01:00am 9.0 6.4 7.9 93 0.5 NNW 11 13 6 7 1017.4 1017.5 3.8
07/12:30am 8.9 6.7 7.8 93 0.5 NW 9 11 5 6 1017.4 1017.5 3.8
07/12:00am 9.5 7.4 8.4 93 0.5 NW 9 11 5 6 1017.4 1017.5 3.8
 
Date/Time
EST
Temp
°C
App
Temp
°C
Dew
Point
Rel
Hum
%
Delta-T
°C
Wind Press
QNH
hPa
Press
MSL
hPa
Rain
since 9 am
mm
Dir
 
Spd
km/h
Gust
km/h
Spd
kts
Gust
kts
06/11:30pm 10.5 8.7 9.4 93 0.6 NW 9 11 5 6 1017.3 1017.4 3.8
06/11:00pm 10.0 8.1 8.9 93 0.5 NW 9 13 5 7 1017.1 1017.2 3.8
06/10:30pm 10.1 8.2 8.9 92 0.6 NNW 9 9 5 5 1017.0 1017.1 3.8
06/10:00pm 10.1 7.8 8.9 92 0.6 NW 11 15 6 8 1016.7 1016.7 3.0
06/09:30pm 9.9 7.8 8.3 90 0.8 NNW 9 11 5 6 1016.5 1016.5 2.8
06/09:00pm 11.3 9.9 9.6 89 0.9 NW 7 11 4 6 1016.2 1016.2 2.8
06/08:30pm 12.0 9.7 10.6 91 0.7 W 13 17 7 9 1016.0 1016.0 2.8
06/08:00pm 11.2 8.7 9.8 91 0.7 WNW 13 15 7 8 1015.6 1015.6 2.8
06/07:30pm 11.3 8.9 9.9 91 0.7 W 13 19 7 10 1015.4 1015.4 2.6
06/07:00pm 10.9 8.3 9.5 91 0.7 NW 13 17 7 9 1015.2 1015.2 2.6
06/06:30pm 11.3 9.2 9.7 90 0.8 NW 11 13 6 7 1014.9 1014.9 2.6
06/06:00pm 11.3 7.4 9.4 88 1.0 WNW 20 30 11 16 1014.5 1014.5 2.0
06/05:30pm 12.2 9.5 10.4 89 0.9 NW 15 20 8 11 1014.2 1014.2 0.4
06/05:00pm 12.4 9.2 10.0 85 1.2 NW 17 20 9 11 1013.8 1013.8 0.2
06/04:30pm 12.5 8.9 9.7 83 1.4 NW 19 26 10 14 1013.5 1013.5 0.2
06/04:00pm 13.4 9.9 10.2 81 1.7 NW 19 28 10 15 1013.1 1013.1 0.2
06/03:30pm 14.6 11.0 10.6 77 2.1 WNW 20 26 11 14 1012.8 1012.8 0.2
06/03:00pm 14.9 11.2 10.3 74 2.4 WNW 20 26 11 14 1012.6 1012.6 0.2
06/02:30pm 14.7 11.3 9.3 70 2.8 WNW 17 24 9 13 1012.6 1012.6 0.2
06/02:00pm 15.0 11.6 10.6 75 2.3 WNW 19 26 10 14 1012.6 1012.6 0.2
06/01:30pm 13.9 9.6 9.5 75 2.3 WNW 22 30 12 16 1012.7 1012.7 0.2
06/01:00pm 13.7 10.1 10.7 82 1.6 NW 20 28 11 15 1012.7 1012.7 0.2
06/12:30pm 12.8 9.2 10.7 87 1.1 NW 20 26 11 14 1012.7 1012.7 0.2
06/12:00pm 12.1 8.1 10.3 89 0.9 NW 22 28 12 15 1013.0 1013.0 0.2
06/11:30am 11.8 7.7 10.2 90 0.8 NNW 22 33 12 18 1013.3 1013.3 0.2
06/11:00am 11.6 7.4 9.9 89 0.9 NNW 22 32 12 17 1013.5 1013.5 0.0
06/10:30am 11.0 6.4 9.6 91 0.7 NNW 24 33 13 18 1013.4 1013.4 0.0
06/10:00am 10.8 6.6 9.6 92 0.6 NNW 22 32 12 17 1013.1 1013.1 0.0
06/09:30am 10.7 6.4 9.3 91 0.7 NNW 22 32 12 17 1012.9 1012.9 0.0
06/09:00am 10.6 6.3 9.2 91 0.7 NNW 22 30 12 16 1012.8 1012.8 0.6
06/08:30am 10.6 5.8 8.7 88 0.9 NNW 24 32 13 17 1012.7 1012.7 0.2
06/08:00am 10.8 6.2 8.0 83 1.4 NNW 22 30 12 16 1012.6 1012.6 0.0
06/07:30am 10.6 6.1 6.9 78 1.8 NNW 20 30 11 16 1012.3 1012.3 0.0
06/07:00am 10.9 6.4 6.8 76 1.9 NNW 20 32 11 17 1012.1 1012.1 0.0
06/06:30am 10.9 5.6 7.0 77 1.9 NNW 24 33 13 18 1012.0 1012.0 0.0
06/06:00am 11.3 7.0 7.2 76 2.0 NNW 19 28 10 15 1012.1 1012.1 0.0
06/05:30am 11.5 6.7 7.2 75 2.1 NNW 22 32 12 17 1012.0 1012.0 0.0
06/05:00am 11.4 6.4 6.5 72 2.3 NNW 22 32 12 17 1012.3 1012.3 0.0
06/04:30am 11.4 5.9 6.1 70 2.5 NNW 24 33 13 18 1012.4 1012.4 0.0
06/04:00am 11.7 6.6 6.0 68 2.7 NNW 22 33 12 18 1012.5 1012.5 0.0
06/03:30am 11.9 7.2 6.0 67 2.8 NNW 20 32 11 17 1012.8 1012.8 0.0
06/03:00am 11.9 6.8 5.8 66 2.9 NNW 22 30 12 16 1013.0 1013.0 0.0
06/02:30am 12.2 6.7 6.0 66 2.9 NNW 24 41 13 22 1012.9 1012.9 0.0
06/02:00am 12.3 6.8 6.1 66 2.9 NNW 24 39 13 21 1012.8 1012.8 0.0
06/01:30am 12.0 7.0 6.5 69 2.6 NNW 22 32 12 17 1013.0 1013.0 0.0
06/01:00am 12.0 7.1 6.9 71 2.4 NNW 22 33 12 18 1013.4 1013.4 0.0
06/12:30am 11.7 7.3 7.4 75 2.1 NNW 20 30 11 16 1013.7 1013.7 0.0
06/12:00am 11.6 7.6 8.1 79 1.7 NNW 19 32 10 17 1013.8 1013.8 0.0
 
Date/Time
EST
Temp
°C
App
Temp
°C
Dew
Point
Rel
Hum
%
Delta-T
°C
Wind Press
QNH
hPa
Press
MSL
hPa
Rain
since 9 am
mm
Dir
 
Spd
km/h
Gust
km/h
Spd
kts
Gust
kts
05/11:30pm 11.8 7.7 8.5 80 1.6 NNW 20 33 11 18 1013.8 1013.8 0.0
05/11:00pm 12.0 7.3 7.9 76 2.0 NNW 22 30 12 16 1013.9 1013.9 0.0
05/10:30pm 12.1 7.8 8.0 76 2.0 NNW 20 32 11 17 1014.0 1014.0 0.0
05/10:00pm 12.1 7.5 8.0 76 2.0 NNW 22 35 12 19 1014.2 1014.2 0.0
05/09:30pm 12.2 8.0 8.1 76 2.0 NNW 20 30 11 16 1014.5 1014.5 0.0
05/09:00pm 11.9 7.7 8.2 78 1.8 NNW 20 28 11 15 1014.5 1014.5 0.0
05/08:30pm 12.2 8.0 8.1 76 2.0 NNW 20 32 11 17 1014.6 1014.6 0.0
05/08:00pm 12.5 7.4 7.8 73 2.3 NNW 24 33 13 18 1014.6 1014.6 0.0
05/07:30pm 12.3 8.0 8.0 75 2.1 NNW 20 30 11 16 1014.7 1014.7 0.0
05/07:00pm 12.6 8.6 8.3 75 2.1 NNW 19 28 10 15 1014.8 1014.8 0.0
05/06:30pm 12.6 8.4 8.3 75 2.1 NNW 20 28 11 15 1014.8 1014.8 0.0
05/06:00pm 12.6 8.4 8.1 74 2.2 NNW 20 28 11 15 1014.7 1014.7 0.0
05/05:30pm 12.7 8.5 8.2 74 2.2 NNW 20 26 11 14 1014.5 1014.5 0.0
05/05:00pm 13.1 8.5 8.2 72 2.4 NNW 22 30 12 16 1014.6 1014.6 0.0
05/04:30pm 13.9 8.5 8.1 68 2.9 NNW 26 37 14 20 1014.5 1014.5 0.0
05/04:00pm 14.0 8.6 8.0 67 3.0 NNW 26 39 14 21 1014.4 1014.4 0.0
05/03:30pm 14.5 9.2 8.5 67 3.0 NW 26 39 14 21 1014.5 1014.5 0.0
05/03:00pm 14.2 9.7 8.4 68 2.9 NW 22 33 12 18 1014.7 1014.7 0.0
05/02:30pm 14.2 9.3 8.4 68 2.9 NNW 24 35 13 19 1014.8 1014.8 0.0
05/02:00pm 14.2 9.3 8.4 68 2.9 NNW 24 32 13 17 1014.9 1014.9 0.0
05/01:30pm 14.2 8.8 7.9 66 3.1 NW 26 41 14 22 1015.2 1015.2 0.0
05/01:00pm 14.5 9.7 8.7 68 2.9 NNW 24 35 13 19 1015.6 1015.6 0.0
05/12:30pm 14.4 9.1 8.4 67 3.0 NNW 26 37 14 20 1015.8 1015.8 0.0

Other Formats:

Comma delimited format used in spreadsheet applications
http://www.bom.gov.au/fwo/IDV60801/IDV60801.94826.axf

JavaScript Object Notation format (JSON) in row-major order
http://www.bom.gov.au/fwo/IDV60801/IDV60801.94826.json